createdAt,value
2022-08-05T00:01:55.211Z,97991.22
2022-08-05T00:06:01.798Z,97986.16
2022-08-05T00:08:41.066Z,97989.63
2022-08-05T00:11:48.451Z,97984.19
2022-08-05T00:15:54.023Z,97987.56
2022-08-05T00:18:25.793Z,97990.34
2022-08-05T00:21:38.841Z,97987.00
2022-08-05T00:24:48.604Z,97986.63
2022-08-05T00:28:00.204Z,98000.03
2022-08-05T00:31:07.501Z,97986.81
2022-08-05T00:34:56.489Z,97986.78
2022-08-05T00:37:53.587Z,97980.09
2022-08-05T00:41:01.939Z,97971.28
2022-08-05T00:44:07.198Z,97983.03
2022-08-05T00:47:12.122Z,97974.91
2022-08-05T00:50:21.456Z,97975.16
2022-08-05T00:53:45.432Z,97969.72
2022-08-05T00:56:55.866Z,97974.69
2022-08-05T01:00:02.423Z,97967.25
2022-08-05T01:03:22.756Z,97967.00
2022-08-05T01:06:32.570Z,97968.66
2022-08-05T01:09:39.285Z,97966.13
2022-08-05T01:13:03.222Z,97974.88
2022-08-05T01:16:26.618Z,97978.13
2022-08-05T01:20:02.341Z,97967.59
2022-08-05T01:23:15.346Z,97966.72
2022-08-05T01:26:52.867Z,97969.09
2022-08-05T01:30:17.736Z,97969.09
2022-08-05T01:33:35.378Z,97973.19
2022-08-05T01:36:51.059Z,97973.66
2022-08-05T01:39:59.101Z,97968.53
2022-08-05T01:43:05.669Z,97980.09
2022-08-05T01:46:16.410Z,97978.50
2022-08-05T01:50:00.253Z,97973.28
2022-08-05T01:53:06.402Z,97979.72
2022-08-05T01:58:11.437Z,97973.31
2022-08-05T01:59:47.095Z,97978.38
2022-08-05T02:02:59.931Z,97984.38
2022-08-05T02:06:24.107Z,97980.78
2022-08-05T02:09:38.138Z,97976.63
2022-08-05T02:12:54.227Z,97965.88
2022-08-05T02:16:06.079Z,97963.66
2022-08-05T02:19:20.250Z,97969.78
2022-08-05T02:22:32.764Z,97971.06
2022-08-05T02:25:50.140Z,97970.81
2022-08-05T02:28:58.122Z,97970.00
2022-08-05T02:32:04.709Z,97969.25
2022-08-05T02:35:15.490Z,97964.97
2022-08-05T02:38:35.547Z,97959.59
2022-08-05T02:41:58.084Z,97968.03
2022-08-05T02:45:06.494Z,97968.25
2022-08-05T02:48:13.026Z,97973.34
2022-08-05T02:51:28.554Z,97962.09
2022-08-05T02:54:50.666Z,97970.81
2022-08-05T02:58:09.763Z,97965.72
2022-08-05T03:01:25.045Z,97971.38
2022-08-05T03:04:32.069Z,97962.09
2022-08-05T03:07:59.199Z,97965.44
2022-08-05T03:11:54.843Z,97970.25
2022-08-05T03:14:30.296Z,97964.13
2022-08-05T03:17:34.733Z,97964.34
2022-08-05T03:20:48.767Z,97959.00
2022-08-05T03:23:56.351Z,97959.81
2022-08-05T03:27:02.185Z,97958.31
2022-08-05T03:30:09.067Z,97966.50
2022-08-05T03:33:18.077Z,97966.16
2022-08-05T03:36:28.027Z,97961.56
2022-08-05T03:39:57.748Z,97972.59
2022-08-05T03:43:01.452Z,97972.88
2022-08-05T03:46:29.809Z,97967.25
2022-08-05T03:49:51.347Z,97973.91
2022-08-05T03:55:33.980Z,97964.72
2022-08-05T03:56:41.330Z,97964.16
2022-08-05T03:59:54.894Z,97972.66
2022-08-05T04:03:03.053Z,97977.25
2022-08-05T04:06:09.714Z,97977.75
2022-08-05T04:09:14.440Z,97977.44
2022-08-05T04:12:27.692Z,97968.28
2022-08-05T04:15:35.921Z,97976.75
2022-08-05T04:18:41.224Z,97975.94
2022-08-05T04:21:45.880Z,97975.66
2022-08-05T04:25:12.488Z,97975.38
2022-08-05T04:28:30.921Z,97980.97
2022-08-05T04:31:39.485Z,97978.38
2022-08-05T04:34:43.693Z,97973.69
2022-08-05T04:38:03.011Z,97971.06
2022-08-05T04:41:10.747Z,97972.44
2022-08-05T04:44:21.491Z,97969.72
2022-08-05T04:47:38.562Z,97962.16
2022-08-05T04:51:03.117Z,97961.44
2022-08-05T04:54:15.700Z,97948.00
2022-08-05T04:57:20.306Z,97954.06
2022-08-05T05:00:26.453Z,97954.19
2022-08-05T05:03:41.931Z,97959.22
2022-08-05T05:06:52.025Z,97954.81
2022-08-05T05:10:06.321Z,97943.69
2022-08-05T05:13:11.774Z,97947.28
2022-08-05T05:16:20.087Z,97947.38
2022-08-05T05:19:36.539Z,97941.91
2022-08-05T05:22:49.197Z,97948.91
2022-08-05T05:26:00.500Z,97952.63
2022-08-05T05:29:13.649Z,97940.38
2022-08-05T05:32:21.236Z,97946.00
2022-08-05T05:35:31.583Z,97941.16
2022-08-05T05:38:42.840Z,97940.88
2022-08-05T05:41:54.246Z,97942.09
2022-08-05T05:45:00.436Z,97943.84
2022-08-05T05:48:11.008Z,97944.34
2022-08-05T05:51:24.003Z,97939.97
2022-08-05T05:54:50.537Z,97936.84
2022-08-05T05:57:54.468Z,97944.78
2022-08-05T06:01:12.719Z,97944.44
2022-08-05T06:04:20.571Z,97935.19
2022-08-05T06:07:41.819Z,97941.66
2022-08-05T06:10:52.500Z,97947.56
2022-08-05T06:13:57.662Z,97937.69
2022-08-05T06:17:22.388Z,97941.91
2022-08-05T06:20:30.843Z,97939.56
2022-08-05T06:23:43.924Z,97943.44
2022-08-05T06:26:51.671Z,97940.75
2022-08-05T06:30:02.736Z,97953.50
2022-08-05T06:33:19.013Z,97948.63
2022-08-05T06:36:25.963Z,97945.84
2022-08-05T06:39:32.635Z,97946.06
2022-08-05T06:42:36.792Z,97948.72
2022-08-05T06:46:06.761Z,97948.19
2022-08-05T06:49:08.372Z,97947.06
2022-08-05T06:52:37.336Z,97941.69
2022-08-05T06:55:42.020Z,97951.28
2022-08-05T06:58:46.759Z,97951.25
2022-08-05T07:01:52.872Z,97945.44
2022-08-05T07:04:57.194Z,97950.03
2022-08-05T07:08:03.754Z,97946.22
2022-08-05T07:11:08.396Z,97947.56
2022-08-05T07:14:37.031Z,97950.94
2022-08-05T07:18:08.536Z,97943.22
2022-08-05T07:21:08.193Z,97950.69
2022-08-05T07:24:15.376Z,97946.81
2022-08-05T07:27:19.077Z,97945.63
2022-08-05T07:30:31.954Z,97944.03
2022-08-05T07:33:37.679Z,97944.28
2022-08-05T07:36:45.792Z,97940.53
2022-08-05T07:40:26.951Z,97931.25
2022-08-05T07:43:21.293Z,97934.13
2022-08-05T07:46:26.575Z,97930.63
2022-08-05T07:49:30.975Z,97929.00
2022-08-05T07:52:39.961Z,97929.84
2022-08-05T07:56:06.172Z,97929.34
2022-08-05T07:59:09.638Z,97930.81
2022-08-05T08:02:16.429Z,97937.09
2022-08-05T08:09:14.393Z,97922.94
2022-08-05T08:12:49.332Z,97938.94
2022-08-05T08:16:35.401Z,97934.13
2022-08-05T08:20:22.604Z,97933.13
2022-08-05T08:24:01.161Z,97922.41
2022-08-05T08:27:01.749Z,97938.16
2022-08-05T08:30:32.787Z,97925.63
2022-08-05T08:33:40.739Z,97928.19
2022-08-05T08:37:03.391Z,97932.50
2022-08-05T08:40:22.595Z,97925.41
2022-08-05T08:45:19.347Z,97919.28
2022-08-05T08:46:53.958Z,97925.81
2022-08-05T08:50:30.919Z,97924.56
2022-08-05T08:53:40.208Z,97915.75
2022-08-05T08:56:49.555Z,97912.88
2022-08-05T08:59:56.130Z,97910.97
2022-08-05T09:03:02.552Z,97905.06
2022-08-05T09:06:11.085Z,97913.59
2022-08-05T09:09:17.524Z,97912.16
2022-08-05T09:12:27.794Z,97902.53
2022-08-05T09:15:31.995Z,97904.00
2022-08-05T09:18:44.987Z,97906.69
2022-08-05T09:22:21.829Z,97900.84
2022-08-05T09:25:45.831Z,97901.53
2022-08-05T09:28:48.989Z,97900.63
2022-08-05T09:32:51.178Z,97895.09
2022-08-05T09:35:32.919Z,97888.88
2022-08-05T09:38:37.315Z,97891.31
2022-08-05T09:41:58.504Z,97885.34
2022-08-05T09:45:17.392Z,97882.34
2022-08-05T09:48:27.230Z,97873.06
2022-08-05T09:51:36.494Z,97876.09
2022-08-05T09:54:40.720Z,97880.66
2022-08-05T09:57:49.937Z,97869.38
2022-08-05T10:01:13.494Z,97867.66
2022-08-05T10:04:29.408Z,97872.94
2022-08-05T10:08:36.660Z,97850.31
2022-08-05T10:11:17.210Z,97861.88
2022-08-05T10:14:26.621Z,97851.97
2022-08-05T10:17:38.102Z,97851.84
2022-08-05T10:20:48.440Z,97851.56
2022-08-05T10:23:59.786Z,97843.00
2022-08-05T10:27:04.932Z,97837.00
2022-08-05T10:32:49.511Z,97830.72
2022-08-05T10:34:12.734Z,97838.28
2022-08-05T10:37:23.148Z,97834.19
2022-08-05T10:41:10.070Z,97831.16
2022-08-05T10:44:25.506Z,97816.50
2022-08-05T10:47:36.191Z,97820.19
2022-08-05T10:51:03.354Z,97806.88
2022-08-05T10:54:28.580Z,97816.63
2022-08-05T10:57:51.464Z,97812.09
2022-08-05T11:01:02.774Z,97802.56
2022-08-05T11:04:12.647Z,97799.69
2022-08-05T11:07:32.911Z,97796.69
2022-08-05T11:11:01.047Z,97795.47
2022-08-05T11:14:57.700Z,97780.91
2022-08-05T11:17:58.650Z,97779.78
2022-08-05T11:21:25.903Z,97794.09
2022-08-05T11:25:16.611Z,97781.75
2022-08-05T11:28:56.709Z,97782.44
2022-08-05T11:32:26.243Z,97766.59
2022-08-05T11:36:04.448Z,97777.72
2022-08-05T11:39:31.000Z,97773.66
2022-08-05T11:42:43.237Z,97775.59
2022-08-05T11:46:32.088Z,97763.66
2022-08-05T11:49:27.753Z,97772.81
2022-08-05T11:52:32.542Z,97765.03
2022-08-05T11:55:38.182Z,97765.34
2022-08-05T11:58:52.880Z,97763.53
2022-08-05T12:01:58.975Z,97768.22
2022-08-05T12:05:36.115Z,97764.00
2022-08-05T12:08:51.235Z,97777.56
2022-08-05T12:11:55.808Z,97765.25
2022-08-05T12:15:00.115Z,97761.38
2022-08-05T12:18:10.614Z,97763.03
2022-08-05T12:21:20.670Z,97763.50
2022-08-05T12:24:25.455Z,97752.91
2022-08-05T12:27:33.355Z,97753.53
2022-08-05T12:30:45.747Z,97747.53
2022-08-05T12:33:50.323Z,97739.75
2022-08-05T12:37:00.485Z,97744.81
2022-08-05T12:40:11.076Z,97742.84
2022-08-05T12:50:33.489Z,97716.16
2022-08-05T12:53:44.099Z,97729.88
2022-08-05T12:57:02.173Z,97723.47
2022-08-05T13:02:02.217Z,97722.84
2022-08-05T13:03:48.796Z,97723.34
2022-08-05T13:06:57.916Z,97716.94
2022-08-05T13:10:12.442Z,97714.09
2022-08-05T13:14:06.133Z,97718.94
2022-08-05T13:16:54.155Z,97706.72
2022-08-05T13:20:02.824Z,97712.47
2022-08-05T13:23:07.527Z,97704.03
2022-08-05T13:26:16.081Z,97697.88
2022-08-05T13:29:38.087Z,97689.28
2022-08-05T13:36:52.167Z,97682.75
2022-08-05T13:40:15.973Z,97681.69
2022-08-05T13:43:43.578Z,97685.59
2022-08-05T13:47:01.704Z,97683.50
2022-08-05T13:50:16.674Z,97687.50
2022-08-05T13:53:22.036Z,97679.00
2022-08-05T13:56:26.334Z,97676.78
2022-08-05T13:59:31.744Z,97669.22
2022-08-05T14:02:35.874Z,97672.56
2022-08-05T14:06:24.595Z,97669.81
2022-08-05T14:09:08.482Z,97667.28
2022-08-05T14:12:17.466Z,97670.22
2022-08-05T14:16:05.261Z,97661.06
2022-08-05T14:18:49.217Z,97652.53
2022-08-05T14:22:09.178Z,97661.44
2022-08-05T14:25:18.996Z,97668.66
2022-08-05T14:28:27.410Z,97669.06
2022-08-05T14:40:42.307Z,97656.38
2022-08-05T14:44:19.977Z,97656.31
2022-08-05T14:48:05.162Z,97643.81
2022-08-05T14:50:48.691Z,97651.56
2022-08-05T14:54:26.139Z,97661.16
2022-08-05T14:57:19.551Z,97655.28
2022-08-05T15:00:28.143Z,97650.81
2022-08-05T15:03:39.302Z,97650.25
2022-08-05T15:06:49.592Z,97655.69
2022-08-05T15:09:55.744Z,97645.78
2022-08-05T15:13:03.520Z,97642.03
2022-08-05T15:16:08.392Z,97635.59
2022-08-05T15:19:23.362Z,97633.91
2022-08-05T15:22:28.703Z,97635.16
2022-08-05T15:31:23.121Z,97630.09
2022-08-05T15:34:47.138Z,97626.84
2022-08-05T15:38:33.086Z,97634.72
2022-08-05T15:41:25.863Z,97628.81
2022-08-05T15:45:03.467Z,97628.19
2022-08-05T15:48:52.918Z,97619.06
2022-08-05T15:52:16.568Z,97622.66
2022-08-05T15:56:02.777Z,97629.94
2022-08-05T15:59:02.376Z,97623.94
2022-08-05T16:02:09.572Z,97626.34
2022-08-05T16:05:18.879Z,97617.84
2022-08-05T16:08:32.710Z,97620.81
2022-08-05T16:11:43.080Z,97629.56
2022-08-05T16:14:47.263Z,97615.69
2022-08-05T16:17:57.754Z,97620.97
2022-08-05T16:21:04.818Z,97618.41
2022-08-05T16:24:41.265Z,97621.22
2022-08-05T16:35:42.276Z,97618.41
2022-08-05T16:39:00.189Z,97611.06
2022-08-05T16:42:15.180Z,97621.28
2022-08-05T16:46:03.478Z,97615.41
2022-08-05T16:49:02.890Z,97623.59
2022-08-05T16:52:07.927Z,97618.59
2022-08-05T16:55:11.922Z,97616.69
2022-08-05T16:58:21.197Z,97621.38
2022-08-05T17:01:53.255Z,97622.16
2022-08-05T17:09:57.495Z,97633.50
2022-08-05T17:13:17.105Z,97622.78
2022-08-05T17:16:32.577Z,97624.72
2022-08-05T17:19:41.667Z,97628.38
2022-08-05T17:22:46.341Z,97628.19
2022-08-05T17:25:59.323Z,97631.97
2022-08-05T17:29:07.466Z,97638.66
2022-08-05T17:32:44.298Z,97643.34
2022-08-05T17:40:39.094Z,97633.09
2022-08-05T17:43:54.296Z,97631.75
2022-08-05T17:47:04.229Z,97635.69
2022-08-05T17:54:23.254Z,97634.47
2022-08-05T18:01:21.977Z,97629.78
2022-08-05T18:04:29.938Z,97629.41
2022-08-05T18:07:59.420Z,97623.78
2022-08-05T18:11:05.047Z,97637.66
2022-08-05T18:14:20.383Z,97631.56
2022-08-05T18:22:09.670Z,97642.00
2022-08-05T18:25:48.432Z,97635.25
2022-08-05T18:29:14.120Z,97643.66
2022-08-05T18:33:46.566Z,97649.91
2022-08-05T18:37:42.884Z,97652.47
2022-08-05T18:41:53.472Z,97653.78
2022-08-05T18:44:32.971Z,97656.28
2022-08-05T18:48:30.169Z,97654.56
2022-08-05T18:52:06.257Z,97662.13
2022-08-05T18:55:14.931Z,97669.78
2022-08-05T18:58:22.178Z,97662.03
2022-08-05T19:01:47.741Z,97665.69
2022-08-05T19:05:02.532Z,97666.81
2022-08-05T19:18:29.893Z,97680.09
2022-08-05T19:21:36.205Z,97679.75
2022-08-05T19:25:08.061Z,97681.91
2022-08-05T19:28:14.012Z,97684.59
2022-08-05T19:31:21.423Z,97680.19
2022-08-05T19:34:29.838Z,97678.94
2022-08-05T19:37:47.386Z,97685.59
2022-08-05T19:40:58.452Z,97680.28
2022-08-05T19:44:13.113Z,97684.06
2022-08-05T19:47:18.483Z,97678.94
2022-08-05T19:50:24.861Z,97685.00
2022-08-05T19:54:05.011Z,97681.59
2022-08-05T19:57:49.355Z,97677.22
2022-08-05T20:00:56.018Z,97684.06
2022-08-05T20:04:23.064Z,97690.13
2022-08-05T20:07:57.656Z,97678.66
2022-08-05T20:11:04.993Z,97675.19
2022-08-05T20:14:14.137Z,97687.00
2022-08-05T20:17:45.853Z,97687.94
2022-08-05T20:20:59.919Z,97687.72
2022-08-05T20:24:12.677Z,97679.41
2022-08-05T20:27:41.938Z,97691.53
2022-08-05T20:30:47.913Z,97688.03
2022-08-05T20:33:58.089Z,97689.69
2022-08-05T20:37:02.209Z,97699.72
2022-08-05T20:40:14.291Z,97695.03
2022-08-05T20:43:20.080Z,97694.31
2022-08-05T20:46:50.269Z,97689.81
2022-08-05T20:50:02.461Z,97692.72
2022-08-05T20:53:16.283Z,97693.09
2022-08-05T20:56:44.887Z,97695.09
2022-08-05T21:00:21.037Z,97691.81
2022-08-05T21:03:20.520Z,97696.09
2022-08-05T21:06:28.697Z,97689.69
2022-08-05T21:09:50.274Z,97684.44
2022-08-05T21:13:11.219Z,97685.97
2022-08-05T21:16:20.025Z,97683.75
2022-08-05T21:19:29.168Z,97685.50
2022-08-05T21:22:54.250Z,97693.50
2022-08-05T21:25:59.400Z,97692.94
2022-08-05T21:29:07.610Z,97686.78
2022-08-05T21:32:26.694Z,97691.78
2022-08-05T21:36:00.192Z,97702.91
2022-08-05T21:39:14.333Z,97702.44
2022-08-05T21:42:41.411Z,97691.91
2022-08-05T21:46:04.042Z,97704.25
2022-08-05T21:49:59.271Z,97701.22
2022-08-05T21:52:40.445Z,97709.13
2022-08-05T21:56:16.307Z,97704.31
2022-08-05T21:59:24.982Z,97713.72
2022-08-05T22:02:45.710Z,97704.34
2022-08-05T22:05:55.553Z,97711.88
2022-08-05T22:09:00.742Z,97719.63
2022-08-05T22:12:12.852Z,97722.84
2022-08-05T22:16:01.239Z,97721.59
2022-08-05T22:20:00.579Z,97718.06
2022-08-05T22:22:54.141Z,97714.72
2022-08-05T22:26:17.027Z,97713.41
2022-08-05T22:29:26.255Z,97709.16
2022-08-05T22:32:33.985Z,97707.84
2022-08-05T22:35:49.286Z,97713.47
2022-08-05T22:38:53.709Z,97711.31
2022-08-05T22:42:09.401Z,97705.97
2022-08-05T22:45:16.086Z,97711.78
2022-08-05T22:48:22.013Z,97711.69
2022-08-05T22:52:05.805Z,97709.91
2022-08-05T22:55:00.260Z,97710.19
2022-08-05T22:58:11.607Z,97713.78
2022-08-05T23:01:21.808Z,97710.81
2022-08-05T23:04:52.131Z,97707.84
2022-08-05T23:08:04.885Z,97703.28
2022-08-05T23:11:10.954Z,97692.13
2022-08-05T23:14:22.563Z,97697.69
2022-08-05T23:18:01.133Z,97691.03
2022-08-05T23:21:10.265Z,97693.13
2022-08-05T23:24:16.444Z,97683.69
2022-08-05T23:31:16.991Z,97696.59
2022-08-05T23:34:25.962Z,97699.75
2022-08-05T23:37:36.710Z,97696.50
2022-08-05T23:44:05.230Z,97693.50
2022-08-05T23:47:15.476Z,97688.47
2022-08-05T23:50:44.284Z,97687.56
2022-08-05T23:53:53.096Z,97680.75
2022-08-05T23:57:09.731Z,97671.38
